KLHB/LHB METAR and TAF weather

Enter ICAO airport designator
Station Type Date Time Source
KLHB METAR 2019/12/12 09:15 UTC NOAA

KLHB 120915Z AUTO 00000KT 10SM CLR 00/00 A3038 RMK AO2 T00031005


Station Type Date Time Source
KLHB Decoded METAR 2019/12/12 09:15 UTC NOAA

Hearne, Hearne Municipal Airport, TX, United States (KLHB) 30-52-18N 096-37-20W
Dec 12, 2019 - 04:15 AM EST / 2019.12.12 0915 UTC
Wind: Calm:0
Visibility: 10 mile(s):0
Sky conditions: clear
Temperature: 32.5 F (0.3 C)
Dew Point: 31.1 F (-0.5 C)
Relative Humidity: 94%
Pressure (altimeter): 30.38 in. Hg (1028 hPa)
ob: KLHB 120915Z AUTO 00000KT 10SM CLR 00/00 A3038 RMK AO2 T00031005
cycle: 9

Station Type Date Time Source
KLHB TAF UTC NOAA

Error!

Example: see airport list